createdAt,value
2018-01-28T00:00:12.248Z,0.00
2018-01-28T00:01:12.200Z,0.00
2018-01-28T00:02:12.159Z,0.00
2018-01-28T00:03:12.124Z,0.00
2018-01-28T00:04:12.077Z,0.00
2018-01-28T00:05:12.044Z,0.00
2018-01-28T00:06:11.996Z,0.00
2018-01-28T00:07:11.961Z,0.00
2018-01-28T00:08:11.914Z,0.00
2018-01-28T00:09:11.869Z,0.00
2018-01-28T00:10:11.830Z,0.00
2018-01-28T00:11:11.796Z,0.00
2018-01-28T00:12:11.753Z,0.00
2018-01-28T00:13:11.705Z,0.00
2018-01-28T00:14:11.673Z,0.00
2018-01-28T00:15:11.624Z,0.00
2018-01-28T00:16:11.581Z,0.00
2018-01-28T00:17:11.545Z,0.00
2018-01-28T00:18:11.501Z,0.00
2018-01-28T00:19:11.461Z,0.00
2018-01-28T00:20:11.420Z,0.00
2018-01-28T00:21:11.378Z,0.00
2018-01-28T00:22:11.336Z,0.00
2018-01-28T00:23:11.305Z,0.00
2018-01-28T00:24:11.256Z,0.00
2018-01-28T00:25:11.215Z,0.00
2018-01-28T00:26:11.203Z,0.00
2018-01-28T00:27:11.141Z,0.00
2018-01-28T00:28:11.092Z,0.00
2018-01-28T00:29:11.058Z,0.00
2018-01-28T00:30:11.016Z,0.00
2018-01-28T00:31:10.968Z,0.00
2018-01-28T00:32:10.927Z,0.00
2018-01-28T00:33:10.886Z,0.00
2018-01-28T00:34:10.854Z,0.00
2018-01-28T00:35:10.808Z,0.00
2018-01-28T00:36:10.770Z,0.00
2018-01-28T00:37:10.723Z,0.00
2018-01-28T00:38:10.681Z,0.00
2018-01-28T00:39:10.640Z,0.00
2018-01-28T00:40:10.594Z,0.00
2018-01-28T00:41:10.558Z,0.00
2018-01-28T00:42:10.516Z,0.00
2018-01-28T00:43:10.475Z,0.00
2018-01-28T00:44:10.437Z,0.00
2018-01-28T00:45:10.394Z,0.00
2018-01-28T00:46:10.353Z,0.00
2018-01-28T00:47:10.312Z,0.00
2018-01-28T00:48:10.272Z,0.00
2018-01-28T00:49:10.229Z,0.00
2018-01-28T00:50:10.187Z,0.00
2018-01-28T00:51:10.147Z,0.00
2018-01-28T00:52:10.106Z,0.00
2018-01-28T00:53:10.071Z,0.00
2018-01-28T00:54:10.023Z,0.00
2018-01-28T00:55:09.983Z,0.00
2018-01-28T00:56:09.943Z,0.00
2018-01-28T00:57:09.905Z,0.00
2018-01-28T00:58:09.860Z,0.00
2018-01-28T00:59:09.818Z,0.00
2018-01-28T01:00:09.781Z,0.00
2018-01-28T01:01:09.737Z,0.00
2018-01-28T01:02:09.696Z,0.00
2018-01-28T01:03:09.655Z,0.00
2018-01-28T01:04:09.611Z,0.00
2018-01-28T01:05:09.578Z,0.00
2018-01-28T01:06:09.532Z,0.00
2018-01-28T01:07:09.491Z,0.00
2018-01-28T01:08:09.450Z,0.00
2018-01-28T01:09:09.408Z,0.00
2018-01-28T01:10:09.368Z,0.00
2018-01-28T01:11:09.327Z,0.00
2018-01-28T01:12:09.286Z,0.00
2018-01-28T01:13:09.245Z,0.00
2018-01-28T01:14:09.203Z,0.00
2018-01-28T01:15:09.162Z,0.00
2018-01-28T01:16:09.121Z,0.00
2018-01-28T01:17:09.080Z,0.00
2018-01-28T01:18:09.038Z,0.00
2018-01-28T01:19:08.997Z,0.00
2018-01-28T01:20:08.957Z,0.00
2018-01-28T01:21:08.917Z,0.00
2018-01-28T01:22:08.873Z,0.00
2018-01-28T01:23:08.924Z,0.00
2018-01-28T01:24:08.792Z,0.00
2018-01-28T01:25:08.749Z,0.00
2018-01-28T01:26:08.711Z,0.00
2018-01-28T01:27:08.676Z,0.00
2018-01-28T01:28:08.627Z,0.00
2018-01-28T01:29:08.587Z,0.00
2018-01-28T01:30:08.545Z,0.00
2018-01-28T01:31:08.506Z,0.00
2018-01-28T01:32:08.464Z,0.00
2018-01-28T01:33:08.423Z,0.00
2018-01-28T01:34:08.382Z,0.00
2018-01-28T01:35:08.341Z,0.00
2018-01-28T01:36:08.404Z,0.00
2018-01-28T01:37:08.258Z,0.00
2018-01-28T01:38:08.217Z,0.00
2018-01-28T01:39:08.175Z,0.00
2018-01-28T01:40:08.137Z,0.00
2018-01-28T01:41:08.094Z,0.00
2018-01-28T01:42:08.053Z,0.00
2018-01-28T01:43:08.033Z,0.00
2018-01-28T01:44:07.972Z,0.00
2018-01-28T01:45:07.929Z,0.00
2018-01-28T01:46:07.889Z,0.00
2018-01-28T01:47:07.847Z,0.00
2018-01-28T01:48:07.806Z,0.00
2018-01-28T01:49:07.765Z,0.00
2018-01-28T01:50:07.724Z,0.00
2018-01-28T01:51:07.683Z,0.00
2018-01-28T01:52:07.643Z,0.00
2018-01-28T01:53:07.601Z,0.00
2018-01-28T01:54:07.559Z,0.00
2018-01-28T01:55:07.517Z,0.00
2018-01-28T01:56:07.479Z,0.00
2018-01-28T01:57:07.435Z,0.00
2018-01-28T01:58:07.395Z,0.00
2018-01-28T01:59:07.355Z,0.00
2018-01-28T02:00:07.312Z,0.00
2018-01-28T02:01:07.271Z,0.00
2018-01-28T02:02:07.227Z,0.00
2018-01-28T02:03:07.191Z,0.00
2018-01-28T02:04:07.146Z,0.00
2018-01-28T02:05:07.104Z,0.00
2018-01-28T02:06:07.066Z,0.00
2018-01-28T02:07:07.023Z,0.00
2018-01-28T02:08:06.983Z,0.00
2018-01-28T02:09:06.943Z,0.00
2018-01-28T02:10:06.901Z,0.00
2018-01-28T02:11:06.860Z,0.00
2018-01-28T02:12:06.819Z,0.00
2018-01-28T02:13:06.780Z,0.00
2018-01-28T02:14:06.735Z,0.00
2018-01-28T02:15:06.696Z,0.00
2018-01-28T02:16:06.655Z,0.00
2018-01-28T02:17:06.614Z,0.00
2018-01-28T02:18:06.571Z,0.00
2018-01-28T02:19:06.541Z,0.00
2018-01-28T02:20:06.487Z,0.00
2018-01-28T02:21:06.450Z,0.00
2018-01-28T02:22:06.406Z,0.00
2018-01-28T02:23:06.369Z,0.00
2018-01-28T02:24:06.327Z,0.00
2018-01-28T02:25:06.284Z,0.00
2018-01-28T02:26:06.242Z,0.00
2018-01-28T02:27:06.201Z,0.00
2018-01-28T02:28:06.160Z,0.00
2018-01-28T02:29:06.118Z,0.00
2018-01-28T02:30:06.078Z,0.00
2018-01-28T02:31:06.038Z,0.00
2018-01-28T02:32:05.996Z,0.00
2018-01-28T02:33:05.954Z,0.00
2018-01-28T02:34:05.914Z,0.00
2018-01-28T02:35:05.873Z,0.00
2018-01-28T02:36:05.833Z,0.00
2018-01-28T02:37:05.791Z,0.00
2018-01-28T02:38:05.747Z,0.00
2018-01-28T02:39:05.707Z,0.00
2018-01-28T02:40:05.668Z,0.00
2018-01-28T02:41:05.627Z,0.00
2018-01-28T02:42:05.584Z,0.00
2018-01-28T02:43:05.544Z,0.00
2018-01-28T02:44:05.502Z,0.00
2018-01-28T02:45:05.464Z,0.00
2018-01-28T02:46:05.420Z,0.00
2018-01-28T02:47:05.380Z,0.00
2018-01-28T02:48:05.339Z,0.00
2018-01-28T02:49:05.298Z,0.00
2018-01-28T02:50:05.255Z,0.00
2018-01-28T02:51:05.215Z,0.00
2018-01-28T02:52:05.177Z,0.00
2018-01-28T02:53:05.134Z,0.00
2018-01-28T02:54:05.221Z,0.00
2018-01-28T02:55:05.050Z,0.00
2018-01-28T02:56:05.010Z,0.00
2018-01-28T02:57:04.970Z,0.00
2018-01-28T02:58:04.928Z,0.00
2018-01-28T02:59:04.887Z,0.00
2018-01-28T03:00:04.864Z,0.00
2018-01-28T03:01:04.809Z,0.00
2018-01-28T03:02:04.762Z,0.00
2018-01-28T03:03:04.725Z,0.00
2018-01-28T03:04:04.680Z,0.00
2018-01-28T03:05:04.661Z,0.00
2018-01-28T03:06:04.600Z,0.00
2018-01-28T03:07:04.558Z,0.00
2018-01-28T03:08:04.519Z,0.00
2018-01-28T03:09:04.476Z,0.00
2018-01-28T03:10:04.435Z,0.00
2018-01-28T03:11:04.394Z,0.00
2018-01-28T03:12:04.353Z,0.00
2018-01-28T03:13:04.314Z,0.00
2018-01-28T03:14:04.270Z,0.00
2018-01-28T03:15:04.231Z,0.00
2018-01-28T03:16:04.184Z,0.00
2018-01-28T03:17:04.148Z,0.00
2018-01-28T03:18:04.107Z,0.00
2018-01-28T03:19:04.065Z,0.00
2018-01-28T03:20:04.027Z,0.00
2018-01-28T03:21:03.985Z,0.00
2018-01-28T03:22:03.942Z,0.00
2018-01-28T03:23:03.901Z,0.00
2018-01-28T03:24:03.862Z,0.00
2018-01-28T03:25:03.821Z,0.00
2018-01-28T03:26:03.777Z,0.00
2018-01-28T03:27:03.738Z,0.00
2018-01-28T03:28:03.695Z,0.00
2018-01-28T03:29:03.656Z,0.00
2018-01-28T03:30:03.615Z,0.00
2018-01-28T03:31:03.575Z,0.00
2018-01-28T03:32:03.533Z,0.00
2018-01-28T03:33:03.496Z,0.00
2018-01-28T03:34:03.450Z,0.00
2018-01-28T03:35:03.405Z,0.00
2018-01-28T03:36:03.369Z,0.00
2018-01-28T03:37:03.330Z,0.00
2018-01-28T03:38:03.285Z,0.00
2018-01-28T03:39:03.243Z,0.00
2018-01-28T03:40:03.203Z,0.00
2018-01-28T03:41:03.164Z,0.00
2018-01-28T03:42:03.122Z,0.00
2018-01-28T03:43:03.076Z,0.00
2018-01-28T03:44:03.040Z,0.00
2018-01-28T03:45:03.000Z,0.00
2018-01-28T03:46:02.960Z,0.00
2018-01-28T03:47:02.917Z,0.00
2018-01-28T03:48:02.874Z,0.00
2018-01-28T03:49:02.837Z,0.00
2018-01-28T03:50:02.793Z,0.00
2018-01-28T03:51:02.755Z,0.00
2018-01-28T03:52:02.714Z,0.00
2018-01-28T03:53:02.670Z,0.00
2018-01-28T03:54:02.636Z,0.00
2018-01-28T03:55:02.588Z,0.00
2018-01-28T03:56:02.553Z,0.00
2018-01-28T03:57:02.506Z,0.00
2018-01-28T03:58:02.463Z,0.00
2018-01-28T03:59:02.423Z,0.00
2018-01-28T04:00:02.381Z,0.00
2018-01-28T04:01:02.342Z,0.00
2018-01-28T04:02:02.299Z,0.00
2018-01-28T04:03:02.257Z,0.00
2018-01-28T04:04:02.219Z,0.00
2018-01-28T04:05:02.184Z,0.00
2018-01-28T04:06:02.134Z,0.00
2018-01-28T04:07:02.094Z,0.00
2018-01-28T04:08:02.054Z,0.00
2018-01-28T04:09:02.014Z,0.00
2018-01-28T04:10:01.970Z,0.00
2018-01-28T04:11:01.929Z,0.00
2018-01-28T04:12:01.887Z,0.00
2018-01-28T04:13:01.848Z,0.00
2018-01-28T04:14:01.804Z,0.00
2018-01-28T04:15:01.765Z,0.00
2018-01-28T04:16:01.723Z,0.00
2018-01-28T04:17:01.683Z,0.00
2018-01-28T04:18:01.641Z,0.00
2018-01-28T04:19:01.600Z,0.00
2018-01-28T04:20:01.560Z,0.00
2018-01-28T04:21:01.516Z,0.00
2018-01-28T04:22:01.476Z,0.00
2018-01-28T04:23:01.439Z,0.00
2018-01-28T04:24:01.395Z,0.00
2018-01-28T04:25:01.355Z,0.00
2018-01-28T04:26:01.366Z,0.00
2018-01-28T04:27:01.270Z,0.00
2018-01-28T04:28:01.231Z,0.00
2018-01-28T04:29:01.189Z,0.00
2018-01-28T04:30:01.173Z,0.00
2018-01-28T04:31:01.107Z,0.00
2018-01-28T04:32:01.065Z,0.00
2018-01-28T04:33:01.024Z,0.00
2018-01-28T04:34:00.983Z,0.00
2018-01-28T04:35:00.943Z,0.00
2018-01-28T04:36:00.901Z,0.00
2018-01-28T04:37:00.860Z,0.00
2018-01-28T04:38:00.818Z,0.00
2018-01-28T04:39:00.778Z,0.00
2018-01-28T04:40:00.737Z,0.00
2018-01-28T04:41:00.696Z,0.00
2018-01-28T04:42:00.653Z,0.00
2018-01-28T04:43:00.615Z,0.00
2018-01-28T04:44:00.572Z,0.00
2018-01-28T04:45:00.529Z,0.00
2018-01-28T04:46:00.485Z,0.00
2018-01-28T04:47:00.448Z,0.00
2018-01-28T04:48:00.406Z,0.00
2018-01-28T04:49:00.367Z,0.00
2018-01-28T04:50:00.324Z,0.00
2018-01-28T04:51:00.284Z,0.00
2018-01-28T04:52:00.241Z,0.00
2018-01-28T04:53:00.257Z,0.00
2018-01-28T04:54:00.159Z,0.00
2018-01-28T04:55:00.120Z,0.00
2018-01-28T04:56:00.079Z,0.00
2018-01-28T04:57:00.037Z,0.00
2018-01-28T04:57:59.995Z,0.00
2018-01-28T04:58:59.960Z,0.00
2018-01-28T04:59:59.913Z,0.00
2018-01-28T05:00:59.872Z,0.00
2018-01-28T05:01:59.830Z,0.00
2018-01-28T05:02:59.790Z,0.00
2018-01-28T05:03:59.749Z,0.00
2018-01-28T05:04:59.708Z,0.00
2018-01-28T05:05:59.667Z,0.00
2018-01-28T05:06:59.624Z,0.00
2018-01-28T05:07:59.584Z,0.00
2018-01-28T05:08:59.592Z,0.00
2018-01-28T05:09:59.502Z,0.00
2018-01-28T05:10:59.461Z,0.00
2018-01-28T05:11:59.421Z,0.00
2018-01-28T05:12:59.381Z,0.00
2018-01-28T05:13:59.338Z,0.00
2018-01-28T05:14:59.301Z,0.00
2018-01-28T05:15:59.255Z,0.00
2018-01-28T05:16:59.214Z,0.00
2018-01-28T05:17:59.174Z,0.00
2018-01-28T05:18:59.134Z,0.00
2018-01-28T05:19:59.092Z,0.00
2018-01-28T05:20:59.056Z,0.00
2018-01-28T05:21:59.014Z,0.00
2018-01-28T05:22:58.968Z,0.00
2018-01-28T05:23:58.927Z,0.00
2018-01-28T05:24:58.886Z,0.00
2018-01-28T05:25:58.846Z,0.00
2018-01-28T05:26:58.812Z,0.00
2018-01-28T05:27:58.763Z,0.00
2018-01-28T05:28:58.723Z,0.00
2018-01-28T05:29:58.679Z,0.00
2018-01-28T05:30:58.638Z,0.00
2018-01-28T05:31:58.598Z,0.00
2018-01-28T05:32:58.558Z,0.00
2018-01-28T05:33:58.516Z,0.00
2018-01-28T05:34:58.474Z,0.00
2018-01-28T05:35:58.435Z,0.00
2018-01-28T05:36:58.394Z,0.00
2018-01-28T05:37:58.352Z,0.00
2018-01-28T05:38:58.310Z,0.00
2018-01-28T05:39:58.271Z,0.00
2018-01-28T05:40:58.233Z,0.00
2018-01-28T05:41:58.188Z,0.00
2018-01-28T05:42:58.145Z,0.00
2018-01-28T05:43:58.105Z,0.00
2018-01-28T05:44:58.065Z,0.00
2018-01-28T05:45:58.022Z,0.00
2018-01-28T05:46:57.982Z,0.00
2018-01-28T05:47:57.941Z,0.00
2018-01-28T05:48:57.900Z,0.00
2018-01-28T05:49:57.859Z,0.00
2018-01-28T05:50:57.816Z,0.00
2018-01-28T05:51:57.777Z,0.00
2018-01-28T05:52:57.743Z,0.00
2018-01-28T05:53:57.694Z,0.00
2018-01-28T05:54:57.652Z,0.00
2018-01-28T05:55:57.614Z,0.00
2018-01-28T05:56:57.572Z,0.00
2018-01-28T05:57:57.530Z,0.00
2018-01-28T05:58:57.492Z,0.00
2018-01-28T05:59:57.450Z,0.00
2018-01-28T06:00:57.408Z,0.00
2018-01-28T06:01:57.366Z,0.00
2018-01-28T06:02:57.326Z,0.00
2018-01-28T06:03:57.282Z,0.00
2018-01-28T06:04:57.243Z,0.00
2018-01-28T06:05:57.202Z,0.00
2018-01-28T06:06:57.161Z,0.00
2018-01-28T06:07:57.120Z,0.00
2018-01-28T06:08:57.081Z,0.00
2018-01-28T06:09:57.037Z,0.00
2018-01-28T06:10:56.998Z,0.00
2018-01-28T06:11:56.956Z,0.00
2018-01-28T06:12:56.916Z,0.00
2018-01-28T06:13:56.872Z,0.00
2018-01-28T06:14:56.835Z,0.00
2018-01-28T06:15:56.791Z,0.00
2018-01-28T06:16:56.750Z,0.00
2018-01-28T06:17:56.710Z,0.00
2018-01-28T06:18:56.667Z,0.00
2018-01-28T06:19:56.627Z,0.00
2018-01-28T06:20:56.590Z,0.00
2018-01-28T06:21:56.547Z,0.00
2018-01-28T06:22:56.504Z,0.00
2018-01-28T06:23:56.462Z,0.00
2018-01-28T06:24:56.421Z,0.00
2018-01-28T06:25:56.380Z,0.00
2018-01-28T06:26:56.342Z,0.00
2018-01-28T06:27:56.299Z,0.00
2018-01-28T06:28:56.258Z,0.00
2018-01-28T06:29:56.214Z,0.00
2018-01-28T06:30:56.172Z,0.00
2018-01-28T06:31:56.133Z,0.00
2018-01-28T06:32:56.093Z,0.00
2018-01-28T06:33:56.050Z,0.00
2018-01-28T06:34:56.010Z,0.00
2018-01-28T06:35:55.974Z,0.00
2018-01-28T06:36:55.928Z,0.00
2018-01-28T06:37:55.885Z,0.00
2018-01-28T06:38:55.846Z,0.00
2018-01-28T06:39:55.803Z,0.00
2018-01-28T06:40:55.778Z,0.00
2018-01-28T06:41:55.722Z,0.00
2018-01-28T06:42:55.687Z,0.00
2018-01-28T06:43:55.642Z,0.00
2018-01-28T06:44:55.598Z,0.00
2018-01-28T06:45:55.639Z,0.00
2018-01-28T06:46:55.523Z,0.00
2018-01-28T06:47:55.475Z,0.00
2018-01-28T06:48:55.433Z,0.00
2018-01-28T06:49:55.392Z,0.00
2018-01-28T06:50:55.352Z,0.00
2018-01-28T06:51:55.310Z,0.00
2018-01-28T06:52:55.272Z,0.00
2018-01-28T06:53:55.228Z,0.00
2018-01-28T06:54:55.187Z,0.00
2018-01-28T06:55:55.145Z,0.00
2018-01-28T06:56:55.104Z,0.00
2018-01-28T06:57:55.062Z,0.00
2018-01-28T06:58:55.023Z,0.00
2018-01-28T06:59:54.979Z,0.00
2018-01-28T07:00:54.941Z,0.00
2018-01-28T07:01:54.904Z,0.00
2018-01-28T07:02:54.856Z,0.00
2018-01-28T07:03:54.815Z,0.00
2018-01-28T07:04:54.776Z,0.00
2018-01-28T07:05:54.732Z,0.00
2018-01-28T07:06:54.692Z,5.63
2018-01-28T07:07:54.652Z,5.63
2018-01-28T07:08:54.611Z,5.63
2018-01-28T07:09:54.567Z,5.63
2018-01-28T07:10:54.528Z,5.63
2018-01-28T07:11:54.486Z,5.63
2018-01-28T07:12:54.446Z,5.63
2018-01-28T07:13:54.403Z,5.63
2018-01-28T07:14:54.362Z,5.63
2018-01-28T07:15:54.322Z,5.63
2018-01-28T07:16:54.281Z,5.63
2018-01-28T07:17:54.239Z,5.63
2018-01-28T07:18:54.200Z,5.63
2018-01-28T07:19:54.156Z,5.63
2018-01-28T07:20:54.116Z,5.63
2018-01-28T07:21:54.075Z,5.63
2018-01-28T07:22:54.036Z,5.63
2018-01-28T07:23:53.992Z,5.63
2018-01-28T07:24:53.951Z,11.25
2018-01-28T07:25:53.909Z,11.25
2018-01-28T07:26:53.870Z,11.25
2018-01-28T07:27:53.828Z,11.25
2018-01-28T07:28:53.793Z,11.25
2018-01-28T07:29:53.745Z,11.25
2018-01-28T07:30:53.705Z,11.25
2018-01-28T07:31:53.664Z,11.25
2018-01-28T07:32:53.622Z,11.25
2018-01-28T07:33:53.581Z,11.25
2018-01-28T07:34:53.541Z,11.25
2018-01-28T07:35:53.498Z,11.25
2018-01-28T07:36:53.460Z,16.88
2018-01-28T07:37:53.417Z,16.88
2018-01-28T07:38:53.377Z,16.88
2018-01-28T07:39:53.337Z,16.88
2018-01-28T07:40:53.295Z,16.88
2018-01-28T07:41:53.252Z,16.88
2018-01-28T07:42:53.211Z,16.88
2018-01-28T07:43:53.171Z,16.88
2018-01-28T07:44:53.130Z,16.88
2018-01-28T07:45:53.092Z,16.88
2018-01-28T07:46:53.046Z,16.88
2018-01-28T07:47:53.006Z,16.88
2018-01-28T07:48:52.968Z,16.88
2018-01-28T07:49:52.925Z,16.88
2018-01-28T07:50:52.884Z,16.88
2018-01-28T07:51:52.842Z,16.88
2018-01-28T07:52:52.801Z,16.88
2018-01-28T07:53:52.761Z,22.50
2018-01-28T07:54:52.721Z,22.50
2018-01-28T07:55:52.678Z,22.50
2018-01-28T07:56:52.638Z,22.50
2018-01-28T07:57:52.599Z,22.50
2018-01-28T07:58:52.554Z,22.50
2018-01-28T07:59:52.516Z,22.50
2018-01-28T08:00:52.476Z,28.13
2018-01-28T08:01:52.431Z,28.13
2018-01-28T08:02:52.390Z,22.50
2018-01-28T08:03:52.352Z,22.50
2018-01-28T08:04:52.313Z,22.50
2018-01-28T08:05:52.273Z,22.50
2018-01-28T08:06:52.229Z,22.50
2018-01-28T08:07:52.188Z,22.50
2018-01-28T08:08:52.148Z,22.50
2018-01-28T08:09:52.106Z,22.50
2018-01-28T08:10:52.067Z,22.50
2018-01-28T08:11:52.024Z,22.50
2018-01-28T08:12:51.985Z,22.50
2018-01-28T08:13:51.943Z,28.13
2018-01-28T08:14:51.902Z,28.13
2018-01-28T08:15:51.860Z,28.13
2018-01-28T08:16:51.819Z,28.13
2018-01-28T08:17:51.779Z,28.13
2018-01-28T08:18:51.740Z,33.75
2018-01-28T08:19:51.696Z,33.75
2018-01-28T08:20:51.657Z,39.38
2018-01-28T08:21:51.620Z,39.38
2018-01-28T08:22:51.575Z,39.38
2018-01-28T08:23:51.534Z,39.38
2018-01-28T08:24:51.494Z,39.38
2018-01-28T08:25:51.451Z,39.38
2018-01-28T08:26:51.412Z,39.38
2018-01-28T08:27:51.373Z,39.38
2018-01-28T08:28:51.329Z,39.38
2018-01-28T08:29:51.291Z,39.38
2018-01-28T08:30:51.245Z,45.00
2018-01-28T08:31:51.215Z,45.00
2018-01-28T08:32:51.167Z,45.00
2018-01-28T08:33:51.124Z,45.00
2018-01-28T08:34:51.087Z,45.00
2018-01-28T08:35:51.045Z,45.00
2018-01-28T08:36:51.003Z,45.00
2018-01-28T08:37:50.961Z,45.00
2018-01-28T08:38:50.918Z,39.38
2018-01-28T08:39:50.879Z,39.38
2018-01-28T08:40:50.840Z,39.38
2018-01-28T08:41:50.800Z,39.38
2018-01-28T08:42:50.757Z,39.38
2018-01-28T08:43:50.721Z,39.38
2018-01-28T08:44:50.675Z,39.38
2018-01-28T08:45:50.634Z,45.00
2018-01-28T08:46:50.594Z,45.00
2018-01-28T08:47:50.554Z,39.38
2018-01-28T08:48:50.512Z,39.38
2018-01-28T08:49:50.469Z,39.38
2018-01-28T08:50:50.432Z,45.00
2018-01-28T08:51:50.390Z,45.00
2018-01-28T08:52:50.349Z,45.00
2018-01-28T08:53:50.306Z,45.00
2018-01-28T08:54:50.272Z,45.00
2018-01-28T08:55:50.227Z,45.00
2018-01-28T08:56:50.186Z,45.00
2018-01-28T08:57:50.180Z,50.63
2018-01-28T08:58:50.100Z,45.00
2018-01-28T08:59:50.068Z,45.00
2018-01-28T09:00:50.023Z,45.00
2018-01-28T09:01:49.981Z,39.38
2018-01-28T09:02:49.941Z,45.00
2018-01-28T09:03:49.897Z,45.00
2018-01-28T09:04:49.860Z,39.38
2018-01-28T09:05:49.818Z,39.38
2018-01-28T09:06:49.778Z,39.38
2018-01-28T09:07:49.737Z,39.38
2018-01-28T09:08:49.697Z,39.38
2018-01-28T09:09:49.655Z,39.38
2018-01-28T09:10:49.614Z,39.38
2018-01-28T09:11:49.574Z,45.00
2018-01-28T09:12:49.532Z,45.00
2018-01-28T09:13:49.491Z,45.00
2018-01-28T09:14:49.451Z,45.00
2018-01-28T09:15:49.409Z,45.00
2018-01-28T09:16:49.369Z,45.00
2018-01-28T09:17:49.328Z,50.63
2018-01-28T09:18:49.288Z,56.25
2018-01-28T09:19:49.247Z,56.25
2018-01-28T09:20:49.205Z,56.25
2018-01-28T09:21:49.186Z,67.50
2018-01-28T09:22:49.123Z,73.13
2018-01-28T09:23:49.091Z,67.50
2018-01-28T09:24:49.043Z,67.50
2018-01-28T09:25:49.003Z,67.50
2018-01-28T09:26:48.961Z,67.50
2018-01-28T09:27:48.919Z,73.13
2018-01-28T09:28:48.880Z,67.50
2018-01-28T09:29:48.841Z,61.88
2018-01-28T09:30:48.797Z,50.63
2018-01-28T09:31:48.754Z,50.63
2018-01-28T09:32:48.716Z,56.25
2018-01-28T09:33:48.673Z,56.25
2018-01-28T09:34:48.633Z,50.63
2018-01-28T09:35:48.592Z,50.63
2018-01-28T09:36:48.551Z,56.25
2018-01-28T09:37:48.513Z,50.63
2018-01-28T09:38:48.469Z,56.25
2018-01-28T09:39:48.429Z,50.63
2018-01-28T09:40:48.388Z,56.25
2018-01-28T09:41:48.348Z,56.25
2018-01-28T09:42:48.307Z,56.25
2018-01-28T09:43:48.266Z,56.25
2018-01-28T09:44:48.226Z,67.50
2018-01-28T09:45:48.220Z,67.50
2018-01-28T09:46:48.144Z,67.50
2018-01-28T09:47:48.105Z,73.13
2018-01-28T09:48:48.064Z,67.50
2018-01-28T09:49:48.021Z,67.50
2018-01-28T09:50:47.981Z,73.13
2018-01-28T09:51:47.941Z,78.75
2018-01-28T09:52:47.936Z,78.75
2018-01-28T09:53:47.870Z,78.75
2018-01-28T09:54:47.817Z,78.75
2018-01-28T09:55:47.776Z,84.38
2018-01-28T09:56:47.736Z,90.00
2018-01-28T09:57:47.699Z,84.38
2018-01-28T09:58:47.862Z,84.38
2018-01-28T09:59:47.614Z,78.75
2018-01-28T10:00:47.574Z,78.75
2018-01-28T10:01:47.541Z,78.75
2018-01-28T10:02:47.492Z,84.38
2018-01-28T10:03:47.452Z,84.38
2018-01-28T10:04:47.410Z,78.75
2018-01-28T10:05:47.368Z,73.13
2018-01-28T10:06:47.327Z,67.50
2018-01-28T10:07:47.460Z,67.50
2018-01-28T10:08:47.249Z,73.13
2018-01-28T10:09:47.207Z,73.13
2018-01-28T10:10:47.217Z,73.13
2018-01-28T10:11:47.125Z,67.50
2018-01-28T10:12:47.084Z,67.50
2018-01-28T10:13:47.044Z,61.88
2018-01-28T10:14:47.003Z,56.25
2018-01-28T10:15:46.964Z,56.25
2018-01-28T10:16:46.941Z,56.25
2018-01-28T10:17:46.881Z,61.88
2018-01-28T10:18:47.085Z,61.88
2018-01-28T10:19:46.800Z,61.88
2018-01-28T10:20:46.760Z,61.88
2018-01-28T10:21:46.717Z,61.88
2018-01-28T10:22:46.714Z,61.88
2018-01-28T10:23:46.638Z,67.50
2018-01-28T10:24:46.597Z,67.50
2018-01-28T10:25:46.563Z,61.88
2018-01-28T10:26:46.514Z,61.88
2018-01-28T10:27:46.479Z,61.88
2018-01-28T10:28:46.438Z,61.88
2018-01-28T10:29:46.604Z,67.50
2018-01-28T10:30:46.352Z,67.50
2018-01-28T10:31:46.312Z,73.13
2018-01-28T10:32:46.322Z,73.13
2018-01-28T10:33:46.233Z,73.13
2018-01-28T10:34:46.191Z,78.75
2018-01-28T10:35:46.148Z,78.75
2018-01-28T10:36:46.110Z,78.75
2018-01-28T10:37:46.070Z,78.75
2018-01-28T10:38:46.187Z,84.38
2018-01-28T10:39:45.988Z,78.75
2018-01-28T10:40:45.954Z,78.75
2018-01-28T10:41:45.916Z,78.75
2018-01-28T10:42:45.875Z,78.75
2018-01-28T10:43:45.825Z,84.38
2018-01-28T10:44:45.786Z,84.38
2018-01-28T10:45:45.745Z,84.38
2018-01-28T10:46:45.703Z,84.38
2018-01-28T10:47:45.903Z,84.38
2018-01-28T10:48:45.625Z,84.38
2018-01-28T10:49:45.583Z,84.38
2018-01-28T10:50:45.557Z,84.38
2018-01-28T10:51:45.502Z,78.75
2018-01-28T10:52:45.462Z,78.75
2018-01-28T10:53:45.421Z,78.75
2018-01-28T10:54:45.382Z,78.75
2018-01-28T10:55:45.341Z,78.75
2018-01-28T10:56:45.490Z,73.13
2018-01-28T10:57:45.266Z,73.13
2018-01-28T10:58:45.220Z,73.13
2018-01-28T10:59:45.178Z,73.13
2018-01-28T11:00:45.139Z,73.13
2018-01-28T11:01:45.099Z,73.13
2018-01-28T11:02:45.059Z,73.13
2018-01-28T11:03:45.018Z,78.75
2018-01-28T11:04:44.984Z,78.75
2018-01-28T11:05:45.116Z,78.75
2018-01-28T11:06:44.895Z,78.75
2018-01-28T11:07:44.851Z,78.75
2018-01-28T11:08:44.923Z,78.75
2018-01-28T11:09:44.774Z,78.75
2018-01-28T11:10:44.735Z,84.38
2018-01-28T11:11:46.339Z,90.00
2018-01-28T11:12:45.348Z,90.00
2018-01-28T11:13:44.619Z,95.63
2018-01-28T11:14:44.831Z,95.63
2018-01-28T11:15:44.531Z,90.00
2018-01-28T11:16:44.489Z,84.38
2018-01-28T11:17:44.468Z,90.00
2018-01-28T11:18:44.411Z,90.00
2018-01-28T11:19:44.377Z,84.38
2018-01-28T11:20:44.337Z,78.75
2018-01-28T11:21:44.289Z,78.75
2018-01-28T11:22:44.256Z,78.75
2018-01-28T11:23:44.207Z,78.75
2018-01-28T11:24:44.168Z,84.38
2018-01-28T11:25:44.127Z,84.38
2018-01-28T11:26:44.089Z,84.38
2018-01-28T11:27:44.050Z,84.38
2018-01-28T11:28:44.005Z,84.38
2018-01-28T11:29:43.965Z,84.38
2018-01-28T11:30:43.925Z,84.38
2018-01-28T11:31:43.884Z,78.75
2018-01-28T11:32:43.870Z,78.75
2018-01-28T11:33:43.808Z,78.75
2018-01-28T11:34:43.917Z,73.13
2018-01-28T11:35:43.731Z,73.13
2018-01-28T11:36:43.682Z,73.13
2018-01-28T11:37:45.352Z,73.13
2018-01-28T11:38:43.602Z,73.13
2018-01-28T11:39:43.560Z,84.38
2018-01-28T11:40:43.521Z,90.00
2018-01-28T11:41:43.504Z,84.38
2018-01-28T11:42:43.439Z,78.75
2018-01-28T11:43:43.654Z,78.75
2018-01-28T11:44:43.356Z,78.75
2018-01-28T11:45:43.318Z,78.75
2018-01-28T11:46:43.333Z,78.75
2018-01-28T11:47:43.251Z,78.75
2018-01-28T11:48:43.197Z,73.13
2018-01-28T11:49:43.155Z,78.75
2018-01-28T11:50:43.345Z,78.75
2018-01-28T11:51:43.081Z,78.75
2018-01-28T11:52:43.035Z,78.75
2018-01-28T11:53:43.072Z,84.38
2018-01-28T11:54:42.953Z,90.00
2018-01-28T11:55:42.913Z,84.38
2018-01-28T11:56:42.930Z,84.38
2018-01-28T11:57:42.839Z,84.38
2018-01-28T11:58:42.791Z,90.00
2018-01-28T11:59:42.749Z,90.00
2018-01-28T12:00:42.711Z,78.75
2018-01-28T12:01:42.671Z,78.75
2018-01-28T12:02:42.725Z,73.13
2018-01-28T12:03:42.597Z,73.13
2018-01-28T12:04:42.550Z,78.75
2018-01-28T12:05:42.506Z,78.75
2018-01-28T12:06:42.539Z,78.75
2018-01-28T12:07:42.424Z,90.00
2018-01-28T12:08:42.534Z,90.00
2018-01-28T12:09:42.346Z,90.00
2018-01-28T12:10:42.313Z,95.63
2018-01-28T12:11:42.375Z,95.63
2018-01-28T12:12:42.233Z,95.63
2018-01-28T12:13:42.183Z,95.63
2018-01-28T12:14:42.143Z,95.63
2018-01-28T12:15:42.122Z,101.25
2018-01-28T12:16:42.069Z,106.88
2018-01-28T12:17:42.269Z,106.88
2018-01-28T12:18:41.981Z,112.50
2018-01-28T12:19:41.941Z,112.50
2018-01-28T12:20:41.910Z,112.50
2018-01-28T12:21:41.859Z,112.50
2018-01-28T12:22:41.820Z,106.88
2018-01-28T12:23:41.780Z,106.88
2018-01-28T12:24:41.739Z,106.88
2018-01-28T12:25:41.701Z,101.25
2018-01-28T12:26:41.675Z,106.88
2018-01-28T12:27:41.625Z,106.88
2018-01-28T12:28:41.761Z,101.25
2018-01-28T12:29:41.536Z,101.25
2018-01-28T12:30:41.497Z,101.25
2018-01-28T12:31:41.509Z,101.25
2018-01-28T12:32:41.417Z,106.88
2018-01-28T12:33:41.375Z,106.88
2018-01-28T12:34:41.344Z,106.88
2018-01-28T12:35:41.314Z,112.50
2018-01-28T12:36:41.263Z,112.50
2018-01-28T12:37:41.362Z,112.50
2018-01-28T12:38:41.184Z,118.13
2018-01-28T12:39:41.133Z,118.13
2018-01-28T12:40:41.101Z,112.50
2018-01-28T12:41:41.062Z,112.50
2018-01-28T12:42:41.020Z,112.50
2018-01-28T12:43:40.973Z,112.50
2018-01-28T12:44:40.933Z,112.50
2018-01-28T12:45:40.900Z,118.13
2018-01-28T12:46:40.919Z,118.13
2018-01-28T12:47:40.818Z,118.13
2018-01-28T12:48:41.034Z,106.88
2018-01-28T12:49:40.731Z,106.88
2018-01-28T12:50:40.698Z,101.25
2018-01-28T12:51:40.699Z,101.25
2018-01-28T12:52:40.620Z,101.25
2018-01-28T12:53:40.571Z,101.25
2018-01-28T12:54:40.538Z,95.63
2018-01-28T12:55:40.624Z,90.00
2018-01-28T12:56:40.459Z,90.00
2018-01-28T12:57:40.579Z,90.00
2018-01-28T12:58:40.377Z,90.00
2018-01-28T12:59:40.331Z,84.38
2018-01-28T13:00:40.291Z,84.38
2018-01-28T13:01:40.259Z,84.38
2018-01-28T13:02:40.210Z,90.00
2018-01-28T13:03:40.188Z,84.38
2018-01-28T13:04:40.129Z,84.38